createdAt,value
2023-01-18T17:02:45.657Z,10.30
2023-01-18T17:05:24.550Z,9.20
2023-01-18T17:08:02.321Z,8.17
2023-01-18T17:10:42.641Z,9.10
2023-01-18T17:13:19.910Z,9.00
2023-01-18T17:15:57.248Z,9.23
2023-01-18T17:18:37.157Z,9.23
2023-01-18T17:21:14.885Z,9.60
2023-01-18T17:23:51.641Z,9.17
2023-01-18T17:26:30.892Z,7.73
2023-01-18T17:29:09.307Z,8.13
2023-01-18T17:31:52.383Z,9.10
2023-01-18T17:34:35.037Z,10.50
2023-01-18T17:37:12.982Z,9.23
2023-01-18T17:40:10.965Z,8.93
2023-01-18T17:42:49.220Z,8.63
2023-01-18T17:45:26.541Z,8.40
2023-01-18T17:48:04.625Z,9.17
2023-01-18T17:50:46.740Z,7.93
2023-01-18T17:53:24.277Z,8.20
2023-01-18T17:56:02.485Z,8.00
2023-01-18T17:58:41.281Z,7.70
2023-01-18T18:01:21.322Z,8.33
2023-01-18T18:04:03.955Z,8.80
2023-01-18T18:06:54.107Z,7.43
2023-01-18T18:09:39.310Z,7.20
2023-01-18T18:12:23.402Z,7.03
2023-01-18T18:15:06.363Z,7.43
2023-01-18T18:17:45.126Z,7.90
2023-01-18T18:20:29.557Z,7.23
2023-01-18T18:23:11.074Z,7.40
2023-01-18T18:25:52.829Z,7.10
2023-01-18T18:28:32.019Z,6.67
2023-01-18T18:31:16.894Z,6.13
2023-01-18T18:33:56.079Z,7.90
2023-01-18T18:36:35.244Z,6.87
2023-01-18T18:39:18.903Z,7.13
2023-01-18T18:41:58.323Z,8.10
2023-01-18T18:44:37.123Z,6.60
2023-01-18T18:47:15.775Z,6.43
2023-01-18T18:49:53.727Z,6.43
2023-01-18T18:52:34.884Z,6.33
2023-01-18T18:55:16.247Z,7.30
2023-01-18T18:57:55.620Z,6.93
2023-01-18T19:00:33.621Z,6.63
2023-01-18T19:03:15.180Z,6.03
2023-01-18T19:06:00.442Z,8.47
2023-01-18T19:08:44.785Z,7.83
2023-01-18T19:11:25.666Z,7.00
2023-01-18T19:14:06.538Z,6.80
2023-01-18T19:16:43.760Z,6.67
2023-01-18T19:19:21.842Z,5.73
2023-01-18T19:22:00.134Z,6.23
2023-01-18T19:24:38.991Z,6.17
2023-01-18T19:27:21.893Z,6.13
2023-01-18T19:30:03.745Z,7.07
2023-01-18T19:32:43.270Z,11.00
2023-01-18T19:35:22.367Z,9.07
2023-01-18T19:38:01.731Z,5.67
2023-01-18T19:40:42.951Z,6.50
2023-01-18T19:43:23.990Z,9.57
2023-01-18T19:46:03.768Z,10.13
2023-01-18T19:48:44.038Z,8.00
2023-01-18T19:51:23.378Z,7.37
2023-01-18T19:54:01.580Z,6.83
2023-01-18T19:56:43.678Z,6.40
2023-01-18T19:59:24.592Z,6.53
2023-01-18T20:02:03.915Z,6.30
2023-01-18T20:04:48.427Z,5.73
2023-01-18T20:07:27.751Z,5.50
2023-01-18T20:10:09.118Z,5.73
2023-01-18T20:12:47.907Z,6.37
2023-01-18T20:15:31.915Z,8.23
2023-01-18T20:18:12.997Z,6.57
2023-01-18T20:20:57.109Z,7.77
2023-01-18T20:23:39.357Z,6.87
2023-01-18T20:26:31.133Z,7.77
2023-01-18T20:29:16.286Z,6.23
2023-01-18T20:32:12.531Z,7.70
2023-01-18T20:34:58.322Z,8.00
2023-01-18T20:37:37.691Z,7.97
2023-01-18T20:40:18.045Z,7.00
2023-01-18T20:42:59.958Z,5.90
2023-01-18T20:45:39.088Z,7.50
2023-01-18T20:48:20.643Z,4.47
2023-01-18T20:51:02.283Z,4.23
2023-01-18T20:53:41.857Z,4.50
2023-01-18T20:56:34.588Z,4.47
2023-01-18T20:59:13.249Z,5.90
2023-01-18T21:01:55.963Z,5.97
2023-01-18T21:04:35.576Z,5.90
2023-01-18T21:07:12.836Z,6.73
2023-01-18T21:09:49.885Z,7.37
2023-01-18T21:12:27.407Z,8.27
2023-01-18T21:15:06.897Z,7.33
2023-01-18T21:17:46.121Z,7.37
2023-01-18T21:20:30.515Z,7.47
2023-01-18T21:23:11.383Z,6.30
2023-01-18T21:25:53.378Z,6.30
2023-01-18T21:28:30.626Z,7.13
2023-01-18T21:31:08.261Z,7.00
2023-01-18T21:33:45.620Z,6.87
2023-01-18T21:36:24.712Z,7.17
2023-01-18T21:39:01.759Z,6.80
2023-01-18T21:41:50.393Z,6.40
2023-01-18T21:44:39.350Z,6.87
2023-01-18T21:47:17.885Z,7.60
2023-01-18T21:50:22.494Z,6.13
2023-01-18T21:53:13.836Z,6.72
2023-01-18T21:55:52.452Z,6.67
2023-01-18T21:58:41.123Z,6.10
2023-01-18T22:01:20.639Z,5.20
2023-01-18T22:04:10.162Z,6.67
